Time;durP1;ratioP1;P1;durP2;ratioP2;P2;SDS_P1;SDS_P2;PMS_P1;PMS_P2;Temp;Humidity;BMP_temperature;BMP_pressure;BME280_temperature;BME280_humidity;BME280_pressure;Samples;Min_cycle;Max_cycle;Signal;HPM_P1;HPM_P2
2020/12/12 00:01:36;;;;;;;0.70;0.70;;;4.50;99.90;;;5.27;100.00;-20825.72;5015285;28;20453;-67
2020/12/12 00:04:04;;;;;;;0.60;0.60;;;4.50;99.90;;;5.24;100.00;-20824.88;5015102;28;20573;-67
2020/12/12 00:06:31;;;;;;;11.00;1.87;;;4.50;99.90;;;5.31;100.00;-20826.81;5013521;28;20512;-67
2020/12/12 00:08:58;;;;;;;0.70;0.70;;;4.60;99.90;;;5.40;100.00;-20829.06;5015153;28;20450;-67
2020/12/12 00:11:26;;;;;;;0.60;0.53;;;4.60;99.90;;;5.45;100.00;-20830.44;5014936;28;20425;-67
2020/12/12 00:13:53;;;;;;;0.60;0.50;;;4.60;99.90;;;5.36;100.00;-20827.94;5002927;28;20450;-67
2020/12/12 00:16:20;;;;;;;0.60;0.60;;;4.60;99.90;;;5.43;100.00;-20829.88;5015358;28;20834;-67
2020/12/12 00:18:48;;;;;;;0.60;0.60;;;4.60;99.90;;;5.36;100.00;-20827.94;5030085;28;20453;-67
2020/12/12 00:21:21;;;;;;;0.60;0.60;;;4.60;99.90;;;5.33;100.00;-20827.25;5014755;28;20458;-68
2020/12/12 00:23:49;;;;;;;0.60;0.50;;;4.70;99.90;;;5.27;100.00;-20825.72;5013222;28;20501;-67
2020/12/12 00:26:25;;;;;;;0.60;0.50;;;4.70;99.90;;;5.30;100.00;-20826.56;5015233;28;20468;-67
2020/12/12 00:28:52;;;;;;;0.60;0.50;;;4.70;99.90;;;5.44;100.00;-20830.31;5013985;28;20476;-67
2020/12/12 00:31:20;;;;;;;0.60;0.50;;;4.70;99.90;;;5.45;100.00;-20830.59;5014230;28;20473;-68
2020/12/12 00:33:48;;;;;;;0.60;0.50;;;4.70;99.90;;;5.47;100.00;-20831.13;5011030;28;20469;-67
2020/12/12 00:36:15;;;;;;;0.60;0.60;;;4.80;99.90;;;5.47;100.00;-20831.13;5012977;28;20433;-67
2020/12/12 00:38:43;;;;;;;0.60;0.57;;;4.80;99.90;;;5.44;100.00;-20830.31;5014702;28;20430;-67
2020/12/12 00:41:12;;;;;;;1.57;0.80;;;4.70;99.90;;;5.43;100.00;-20830.03;5012530;28;20466;-67
2020/12/12 00:43:40;;;;;;;0.60;0.60;;;4.70;99.90;;;5.50;100.00;-20831.84;5013536;28;20832;-67
2020/12/12 00:46:07;;;;;;;0.60;0.50;;;4.80;99.90;;;5.55;100.00;-20833.38;5014780;28;20937;-67
2020/12/12 00:48:35;;;;;;;0.70;0.60;;;4.80;99.90;;;5.58;100.00;-20834.19;4997253;28;20462;-67
2020/12/12 00:51:06;;;;;;;0.63;0.63;;;4.80;99.90;;;5.65;100.00;-20836.00;5014190;28;20767;-67
2020/12/12 00:53:34;;;;;;;0.60;0.50;;;4.80;99.90;;;5.62;100.00;-20835.16;5013376;28;20882;-67
2020/12/12 00:56:01;;;;;;;0.80;0.80;;;4.90;99.90;;;5.66;100.00;-20836.16;5013288;28;20939;-68
2020/12/12 00:58:28;;;;;;;0.60;0.50;;;4.90;99.90;;;5.68;100.00;-20836.84;5013460;28;20910;-67
2020/12/12 01:00:55;;;;;;;0.60;0.60;;;4.90;99.90;;;5.66;100.00;-20836.28;5013991;28;20458;-67
2020/12/12 01:03:23;;;;;;;0.60;0.50;;;5.00;99.90;;;5.68;100.00;-20836.84;5013909;28;20835;-67
2020/12/12 01:05:51;;;;;;;0.60;0.60;;;4.90;99.90;;;5.58;100.00;-20834.19;5025534;28;20430;-67
2020/12/12 01:08:19;;;;;;;0.60;0.60;;;5.00;99.90;;;5.77;100.00;-20839.34;5009135;28;20461;-67
2020/12/12 01:10:47;;;;;;;0.60;0.50;;;5.00;99.90;;;5.78;100.00;-20839.63;5013384;28;20450;-70
2020/12/12 01:13:16;;;;;;;0.70;0.70;;;5.00;99.90;;;5.87;100.00;-20841.84;5014156;28;20517;-67
2020/12/12 01:15:47;;;;;;;0.60;0.50;;;5.00;99.90;;;5.92;100.00;-20843.25;5029510;28;20441;-67
2020/12/12 01:18:15;;;;;;;0.60;0.60;;;5.10;99.90;;;5.84;100.00;-20841.00;5012671;28;20871;-67
2020/12/12 01:20:43;;;;;;;0.77;0.77;;;5.10;99.90;;;5.95;100.00;-20844.09;5013641;28;20764;-67
2020/12/12 01:23:11;;;;;;;0.60;0.57;;;5.10;99.90;;;5.98;100.00;-20845.06;5011437;28;20453;-67
2020/12/12 01:25:40;;;;;;;0.60;0.50;;;5.20;99.90;;;5.96;100.00;-20844.34;5007275;28;20438;-67
2020/12/12 01:28:07;;;;;;;0.60;0.60;;;5.20;99.90;;;6.06;100.00;-20847.13;5013819;28;20433;-68
2020/12/12 01:30:34;;;;;;;0.60;0.50;;;5.20;99.90;;;6.01;100.00;-20845.88;5013585;28;20972;-68
2020/12/12 01:33:02;;;;;;;0.70;0.70;;;5.20;99.90;;;6.04;100.00;-20846.72;5014171;28;20485;-68
2020/12/12 01:35:29;;;;;;;0.60;0.50;;;5.30;99.90;;;6.04;100.00;-20846.59;5013532;28;20491;-67
2020/12/12 01:37:56;;;;;;;0.60;0.60;;;5.20;99.90;;;5.97;100.00;-20844.63;5007301;28;20450;-67
2020/12/12 01:40:23;;;;;;;0.60;0.50;;;5.20;99.90;;;5.99;100.00;-20845.19;5009950;28;20446;-67
2020/12/12 01:42:51;;;;;;;0.60;0.60;;;5.20;99.90;;;6.00;100.00;-20845.47;5013681;28;20482;-67
2020/12/12 01:45:18;;;;;;;0.70;0.60;;;5.20;99.90;;;6.23;100.00;-20851.72;5010608;28;20426;-68
2020/12/12 01:47:45;;;;;;;0.60;0.50;;;5.30;99.90;;;6.07;100.00;-20847.28;5029095;28;20437;-67
2020/12/12 01:50:13;;;;;;;0.60;0.50;;;5.30;99.90;;;6.05;100.00;-20846.88;5028203;28;20496;-67
2020/12/12 01:52:40;;;;;;;0.60;0.60;;;5.30;99.90;;;6.13;100.00;-20849.09;5013513;28;20434;-67
2020/12/12 01:55:08;;;;;;;0.60;0.50;;;5.30;99.90;;;6.15;100.00;-20849.50;5011038;28;20496;-67
2020/12/12 01:57:35;;;;;;;0.60;0.50;;;5.30;99.90;;;6.14;100.00;-20849.22;5012649;28;20445;-67
2020/12/12 02:00:04;;;;;;;0.60;0.60;;;5.30;99.90;;;6.19;100.00;-20850.75;5012114;28;20430;-67
2020/12/12 02:02:33;;;;;;;0.70;0.60;;;5.40;99.90;;;6.16;100.00;-20849.94;5011656;28;20982;-67
2020/12/12 02:05:04;;;;;;;0.60;0.57;;;5.30;99.90;;;6.16;100.00;-20849.78;5013003;28;20457;-67
2020/12/12 02:07:31;;;;;;;0.60;0.60;;;5.30;99.90;;;6.14;100.00;-20849.22;5013486;28;20445;-67
2020/12/12 02:09:58;;;;;;;0.60;0.60;;;5.40;99.90;;;6.16;100.00;-20849.78;5010418;28;20496;-67
2020/12/12 02:12:27;;;;;;;0.60;0.57;;;5.40;99.90;;;6.13;100.00;-20848.94;4994137;28;20824;-68
2020/12/12 02:14:54;;;;;;;0.60;0.50;;;5.30;99.90;;;6.14;100.00;-20849.38;4998895;28;20457;-67
2020/12/12 02:17:23;;;;;;;0.70;0.60;;;5.30;99.90;;;6.17;100.00;-20850.06;5013490;28;20489;-68
2020/12/12 02:19:50;;;;;;;0.70;0.60;;;5.30;99.90;;;6.24;100.00;-20852.00;5013029;28;20457;-68
2020/12/12 02:22:18;;;;;;;0.67;0.60;;;5.40;99.90;;;6.26;100.00;-20852.72;5013148;28;20462;-67
2020/12/12 02:24:45;;;;;;;0.60;0.60;;;5.40;99.90;;;6.12;100.00;-20848.81;5013801;28;20925;-67
2020/12/12 02:27:13;;;;;;;0.60;0.50;;;5.40;99.90;;;6.21;100.00;-20851.31;5013153;28;20425;-68
2020/12/12 02:29:50;;;;;;;0.60;0.57;;;5.40;99.90;;;6.20;100.00;-20851.03;5013134;28;20438;-67
2020/12/12 02:32:20;;;;;;;0.60;0.57;;;5.40;99.90;;;6.23;100.00;-20851.88;5013715;28;20913;-67
2020/12/12 02:34:47;;;;;;;0.60;0.60;;;5.40;99.90;;;6.25;100.00;-20852.28;5025048;28;20467;-67
2020/12/12 02:37:14;;;;;;;0.60;0.60;;;5.50;99.90;;;6.25;100.00;-20852.28;4992375;28;20431;-67
2020/12/12 02:39:42;;;;;;;0.60;0.50;;;5.50;99.90;;;6.33;100.00;-20854.38;5008719;28;20437;-67
2020/12/12 02:42:09;;;;;;;0.70;0.60;;;5.50;99.90;;;6.38;100.00;-20855.75;5012920;28;20511;-67
2020/12/12 02:44:36;;;;;;;0.60;0.50;;;5.50;99.90;;;6.28;100.00;-20853.25;5013248;28;20461;-67
2020/12/12 02:47:03;;;;;;;0.60;0.60;;;5.40;99.90;;;6.27;100.00;-20852.97;5013193;28;20476;-67
2020/12/12 02:49:30;;;;;;;0.70;0.60;;;5.40;99.90;;;6.36;100.00;-20855.34;5012730;28;20468;-67
2020/12/12 02:51:57;;;;;;;0.70;0.60;;;5.50;99.90;;;6.35;100.00;-20854.94;5009538;28;20493;-67
2020/12/12 02:54:23;;;;;;;0.60;0.50;;;5.50;99.90;;;6.40;100.00;-20856.31;4996931;28;20485;-67
2020/12/12 02:56:51;;;;;;;0.60;0.60;;;5.50;99.90;;;6.43;100.00;-20857.16;4996674;28;20865;-68
2020/12/12 02:59:18;;;;;;;0.60;0.50;;;5.60;99.90;;;6.58;100.00;-20861.31;5004786;28;20469;-67
2020/12/12 03:01:45;;;;;;;0.70;0.60;;;5.60;99.90;;;6.66;100.00;-20863.41;5016322;28;20504;-67
2020/12/12 03:04:12;;;;;;;0.60;0.50;;;5.70;99.90;;;6.58;100.00;-20861.19;5016155;28;20476;-67
2020/12/12 03:06:43;;;;;;;0.67;0.60;;;5.70;99.90;;;6.64;100.00;-20863.00;5013389;28;20455;-67
2020/12/12 03:09:11;;;;;;;0.70;0.60;;;5.70;99.90;;;6.67;100.00;-20863.81;5003721;28;20466;-68
2020/12/12 03:11:38;;;;;;;0.60;0.60;;;5.70;99.90;;;6.57;100.00;-20860.91;5016139;28;20447;-67
2020/12/12 03:14:06;;;;;;;0.60;0.60;;;5.70;99.90;;;6.61;100.00;-20862.00;5016286;28;20525;-67
2020/12/12 03:16:33;;;;;;;0.60;0.60;;;5.70;99.90;;;6.56;100.00;-20860.78;5016409;28;20436;-67
2020/12/12 03:19:00;;;;;;;0.60;0.60;;;5.70;99.90;;;6.78;100.00;-20866.75;5011221;28;20483;-67
2020/12/12 03:21:27;;;;;;;0.70;0.63;;;5.70;99.90;;;6.80;100.00;-20867.16;4996247;28;21030;-67
2020/12/12 03:23:55;;;;;;;1.37;1.00;;;5.80;99.90;;;6.72;100.00;-20865.06;4996488;28;20419;-67
2020/12/12 03:26:22;;;;;;;0.60;0.60;;;5.80;99.90;;;6.70;100.00;-20864.66;4996096;28;20432;-68
2020/12/12 03:28:50;;;;;;;0.60;0.60;;;5.80;99.90;;;6.68;100.00;-20864.09;5008430;28;20438;-68
2020/12/12 03:31:17;;;;;;;0.60;0.60;;;5.80;99.90;;;6.78;100.00;-20866.88;5015813;28;20420;-67
2020/12/12 03:33:46;;;;;;;0.60;0.60;;;5.80;99.90;;;6.82;100.00;-20867.72;5015873;28;20450;-68
2020/12/12 03:36:13;;;;;;;0.60;0.60;;;5.80;99.90;;;6.86;100.00;-20868.97;5015324;28;20543;-67
2020/12/12 03:38:40;;;;;;;0.63;0.57;;;5.80;99.90;;;6.74;100.00;-20865.78;5015742;28;20410;-68
2020/12/12 03:41:07;;;;;;;1.13;0.83;;;5.80;99.90;;;6.81;100.00;-20867.44;5001116;28;20446;-67
2020/12/12 03:43:34;;;;;;;0.70;0.60;;;5.80;99.90;;;6.70;100.00;-20864.66;4996402;28;20539;-67
2020/12/12 03:46:02;;;;;;;0.70;0.60;;;5.80;99.90;;;6.70;100.00;-20864.66;5016433;28;20836;-67
2020/12/12 03:48:30;;;;;;;0.60;0.57;;;5.80;99.90;;;6.86;100.00;-20868.97;5015418;28;20936;-67
2020/12/12 03:50:57;;;;;;;0.70;0.60;;;5.90;99.90;;;6.67;100.00;-20863.81;5004978;28;20427;-68
2020/12/12 03:53:24;;;;;;;0.60;0.60;;;5.80;99.90;;;6.71;100.00;-20864.78;4997141;28;20427;-68
2020/12/12 03:55:52;;;;;;;0.70;0.60;;;5.80;99.90;;;6.77;100.00;-20866.59;5015389;28;20414;-67
2020/12/12 03:58:19;;;;;;;0.70;0.60;;;5.80;99.90;;;6.84;100.00;-20868.41;5015873;28;20521;-68
2020/12/12 04:00:46;;;;;;;0.70;0.60;;;5.80;99.90;;;6.75;100.00;-20866.03;5015277;28;20930;-67
2020/12/12 04:03:14;;;;;;;0.70;0.60;;;5.80;99.90;;;6.70;100.00;-20864.66;5012917;28;20467;-68
2020/12/12 04:05:44;;;;;;;0.70;0.60;;;5.80;99.90;;;6.71;100.00;-20864.94;5009200;28;20963;-67
2020/12/12 04:08:11;;;;;;;0.70;0.60;;;5.80;99.90;;;6.96;100.00;-20871.75;5013791;28;20441;-68
2020/12/12 04:10:50;;;;;;;0.70;0.60;;;5.80;99.90;;;6.81;100.00;-20867.44;5014646;28;20409;-68
2020/12/12 04:13:17;;;;;;;0.70;0.63;;;5.90;99.90;;;6.71;100.00;-20864.94;5015062;28;20445;-67
2020/12/12 04:15:44;;;;;;;0.93;0.87;;;5.90;99.90;;;6.86;100.00;-20868.81;5014965;28;20434;-68
2020/12/12 04:18:11;;;;;;;0.60;0.50;;;5.90;99.90;;;6.78;100.00;-20866.75;5014542;28;20477;-67
2020/12/12 04:20:39;;;;;;;0.60;0.50;;;5.90;99.90;;;6.97;100.00;-20871.88;5014751;28;20429;-68
2020/12/12 04:23:06;;;;;;;0.70;0.57;;;5.90;99.90;;;6.74;100.00;-20865.63;5015007;28;20485;-68
2020/12/12 04:25:33;;;;;;;0.70;0.60;;;5.80;99.90;;;6.66;100.00;-20863.53;5014665;28;20470;-68
2020/12/12 04:28:01;;;;;;;0.60;0.60;;;5.80;99.90;;;6.83;100.00;-20868.00;5014928;28;20430;-68
2020/12/12 04:30:28;;;;;;;0.70;0.60;;;5.80;99.90;;;6.78;100.00;-20866.88;5029062;28;20454;-67
2020/12/12 04:32:55;;;;;;;0.70;0.70;;;5.80;99.90;;;6.83;100.00;-20868.13;5013556;28;20462;-67
2020/12/12 04:35:22;;;;;;;0.63;0.57;;;5.80;99.90;;;6.76;100.00;-20866.19;5013891;28;20445;-67
2020/12/12 04:37:49;;;;;;;0.70;0.60;;;5.80;99.90;;;6.61;100.00;-20862.00;5014540;28;20442;-67
2020/12/12 04:40:17;;;;;;;0.60;0.57;;;5.80;99.90;;;6.61;100.00;-20862.00;5014455;28;20410;-68
2020/12/12 04:42:45;;;;;;;0.60;0.60;;;5.80;99.90;;;6.72;100.00;-20865.22;5014646;28;20947;-67
2020/12/12 04:45:13;;;;;;;0.60;0.57;;;5.70;99.90;;;6.71;100.00;-20864.94;5014476;28;20484;-67
2020/12/12 04:47:43;;;;;;;0.63;0.57;;;5.70;99.90;;;6.55;100.00;-20860.47;5014412;28;20483;-69
2020/12/12 04:50:11;;;;;;;0.70;0.60;;;5.70;99.90;;;6.48;100.00;-20858.53;5015118;28;20421;-67
2020/12/12 04:52:41;;;;;;;0.60;0.60;;;5.70;99.90;;;6.62;100.00;-20862.44;5014711;28;20860;-68
2020/12/12 04:55:10;;;;;;;0.70;0.60;;;5.70;99.90;;;6.60;100.00;-20861.88;5028781;28;20464;-70
2020/12/12 04:57:39;;;;;;;0.60;0.60;;;5.70;99.90;;;6.68;100.00;-20864.09;5013654;28;20468;-68
2020/12/12 05:00:11;;;;;;;0.70;0.60;;;5.70;99.90;;;6.66;100.00;-20863.41;5014595;28;20817;-68
2020/12/12 05:02:38;;;;;;;0.60;0.50;;;5.70;99.90;;;6.67;100.00;-20863.81;5003948;28;20490;-67
2020/12/12 05:05:07;;;;;;;0.70;0.60;;;5.70;99.90;;;6.74;100.00;-20865.63;5003902;28;20457;-69
2020/12/12 05:07:35;;;;;;;0.60;0.50;;;5.70;99.90;;;6.66;100.00;-20863.53;5013676;28;20481;-68
2020/12/12 05:10:03;;;;;;;0.70;0.60;;;5.70;99.90;;;6.71;100.00;-20864.94;5014401;28;20446;-67
2020/12/12 05:12:31;;;;;;;0.60;0.60;;;5.70;99.90;;;6.68;100.00;-20864.09;5013767;28;20480;-67
2020/12/12 05:14:59;;;;;;;0.70;0.60;;;5.80;99.90;;;6.90;100.00;-20869.94;5013400;28;20426;-68
2020/12/12 05:17:26;;;;;;;0.70;0.60;;;5.80;99.90;;;6.76;100.00;-20866.31;5013589;28;20819;-67
2020/12/12 05:19:57;;;;;;;0.60;0.60;;;5.80;99.90;;;6.84;100.00;-20868.28;5013379;28;20472;-67
2020/12/12 05:22:24;;;;;;;1.13;1.03;;;5.90;99.90;;;6.77;100.00;-20866.59;5013839;28;20801;-68
2020/12/12 05:24:53;;;;;;;0.93;0.70;;;5.90;99.90;;;6.82;100.00;-20867.72;5011956;28;20446;-67
2020/12/12 05:27:20;;;;;;;0.60;0.50;;;5.80;99.90;;;6.69;100.00;-20864.38;5007283;28;20540;-67
2020/12/12 05:29:47;;;;;;;0.60;0.50;;;5.90;99.90;;;6.63;100.00;-20862.72;4997923;28;20435;-68
2020/12/12 05:32:15;;;;;;;0.60;0.53;;;5.90;99.90;;;6.77;100.00;-20866.59;5003501;28;20450;-68
2020/12/12 05:34:42;;;;;;;0.60;0.60;;;5.90;99.90;;;6.80;100.00;-20867.16;5011678;28;20533;-67
2020/12/12 05:37:09;;;;;;;0.60;0.60;;;5.90;99.90;;;6.82;100.00;-20867.72;5011685;28;20438;-67
2020/12/12 05:39:36;;;;;;;0.70;0.60;;;5.90;99.90;;;6.84;100.00;-20868.28;5008210;28;20993;-68
2020/12/12 05:42:05;;;;;;;0.60;0.50;;;5.90;99.90;;;6.87;100.00;-20869.25;4993810;28;20552;-67
2020/12/12 05:44:33;;;;;;;0.60;0.60;;;5.90;99.90;;;6.90;100.00;-20869.94;4993411;28;20480;-68
2020/12/12 05:47:01;;;;;;;0.60;0.50;;;6.00;99.90;;;6.84;100.00;-20868.28;5008519;28;20452;-68
2020/12/12 05:49:32;;;;;;;0.60;0.60;;;6.00;99.90;;;6.83;100.00;-20868.13;5001247;28;20460;-69
2020/12/12 05:52:00;;;;;;;0.60;0.50;;;6.00;99.90;;;7.02;100.00;-20873.41;5012934;28;20438;-67
2020/12/12 05:54:29;;;;;;;0.60;0.60;;;6.00;99.90;;;6.91;100.00;-20870.22;5013493;28;20440;-67
2020/12/12 05:56:59;;;;;;;0.60;0.50;;;6.00;99.90;;;7.00;100.00;-20872.72;5005800;28;20460;-68
2020/12/12 05:59:27;;;;;;;0.60;0.50;;;6.00;99.90;;;6.93;100.00;-20870.78;5012468;28;20465;-67
2020/12/12 06:01:57;;;;;;;0.60;0.50;;;6.00;99.90;;;6.95;100.00;-20871.31;5028039;28;20487;-67
2020/12/12 06:04:30;;;;;;;0.70;0.60;;;6.00;99.90;;;6.98;100.00;-20872.16;5012700;28;20456;-67
2020/12/12 06:07:03;;;;;;;0.60;0.50;;;6.10;99.90;;;6.99;100.00;-20872.44;5009694;28;20491;-67
2020/12/12 06:09:37;;;;;;;0.70;0.60;;;6.10;99.90;;;7.04;100.00;-20873.81;5007676;28;20497;-67
2020/12/12 06:12:04;;;;;;;0.60;0.60;;;6.10;99.90;;;7.06;100.00;-20874.38;5013152;28;20477;-67
2020/12/12 06:14:37;;;;;;;0.83;0.83;;;6.10;99.90;;;7.07;100.00;-20874.53;5012144;28;20489;-68
2020/12/12 06:17:08;;;;;;;0.60;0.50;;;6.10;99.90;;;7.02;100.00;-20873.28;5013279;28;20473;-67
2020/12/12 06:19:41;;;;;;;0.70;0.60;;;6.10;99.90;;;6.99;100.00;-20872.44;5013309;28;20951;-68
2020/12/12 06:22:14;;;;;;;0.60;0.50;;;6.10;99.90;;;7.10;100.00;-20875.50;5012927;28;20453;-67
2020/12/12 06:24:47;;;;;;;0.60;0.50;;;6.20;99.90;;;7.09;100.00;-20875.22;5013388;28;20447;-68
2020/12/12 06:27:17;;;;;;;0.60;0.60;;;6.20;99.90;;;7.25;100.00;-20879.53;5014348;28;20943;-68
2020/12/12 06:29:47;;;;;;;0.60;0.50;;;6.20;99.90;;;7.23;100.00;-20879.09;4997577;28;20420;-67
2020/12/12 06:32:16;;;;;;;0.70;0.60;;;6.20;99.90;;;7.24;100.00;-20879.25;4997499;28;20429;-67
2020/12/12 06:34:46;;;;;;;0.70;0.60;;;6.20;99.90;;;7.16;100.00;-20877.03;5004971;28;20466;-69
2020/12/12 06:37:32;;;;;;;0.70;0.60;;;6.30;99.90;;;7.24;100.00;-20879.38;5010489;28;21012;-67
2020/12/12 06:40:01;;;;;;;0.63;0.60;;;6.20;99.90;;;7.17;100.00;-20877.28;5003987;28;20429;-67
2020/12/12 06:42:34;;;;;;;0.70;0.60;;;6.20;99.90;;;7.18;100.00;-20877.72;5016509;28;20545;-67
2020/12/12 06:45:28;;;;;;;0.70;0.70;;;6.20;99.90;;;7.27;100.00;-20880.06;5007583;28;20458;-67
2020/12/12 06:47:55;;;;;;;0.67;0.60;;;6.20;99.90;;;7.21;100.00;-20878.53;5024019;28;20965;-67
2020/12/12 06:50:25;;;;;;;0.60;0.60;;;6.20;99.90;;;7.25;100.00;-20879.66;5015234;28;20525;-68
2020/12/12 06:52:53;;;;;;;0.60;0.57;;;6.30;99.90;;;7.20;100.00;-20878.28;5016270;28;20473;-68
2020/12/12 06:55:22;;;;;;;0.70;0.60;;;6.20;99.90;;;7.23;100.00;-20879.09;5016157;28;20451;-68
2020/12/12 06:57:56;;;;;;;0.70;0.60;;;6.20;99.90;;;7.25;100.00;-20879.66;5015579;28;20446;-67
2020/12/12 07:00:30;;;;;;;0.60;0.50;;;6.30;99.90;;;7.32;100.00;-20881.47;5012973;28;20449;-67
2020/12/12 07:02:59;;;;;;;0.63;0.60;;;6.30;99.90;;;7.18;100.00;-20877.72;5014119;28;20554;-68
2020/12/12 07:05:30;;;;;;;0.60;0.60;;;6.30;99.90;;;7.14;100.00;-20876.47;5031369;28;20429;-68
2020/12/12 07:08:02;;;;;;;0.70;0.60;;;6.30;99.90;;;7.11;100.00;-20875.78;5009641;28;20435;-68
2020/12/12 07:10:30;;;;;;;0.70;0.60;;;6.30;99.90;;;7.17;100.00;-20877.44;5015732;28;20420;-67
2020/12/12 07:12:58;;;;;;;0.60;0.50;;;6.20;99.90;;;7.10;100.00;-20875.34;5010646;28;20444;-67
2020/12/12 07:15:28;;;;;;;0.70;0.60;;;6.20;99.90;;;7.16;100.00;-20877.16;5014319;28;20516;-67
2020/12/12 07:17:55;;;;;;;0.60;0.60;;;6.20;99.90;;;7.16;100.00;-20877.16;5006684;28;20414;-67
2020/12/12 07:20:22;;;;;;;0.60;0.60;;;6.20;99.90;;;7.19;100.00;-20878.00;5014563;28;20485;-68
2020/12/12 07:22:51;;;;;;;0.60;0.60;;;6.20;99.90;;;7.13;100.00;-20876.31;5014026;28;20454;-67
2020/12/12 07:25:18;;;;;;;0.60;0.53;;;6.10;99.90;;;7.10;100.00;-20875.50;5008700;28;20483;-68
2020/12/12 07:27:45;;;;;;;0.60;0.60;;;6.10;99.90;;;6.95;100.00;-20871.31;5011249;28;20474;-67
2020/12/12 07:30:12;;;;;;;0.60;0.50;;;6.10;99.90;;;6.96;100.00;-20871.75;5010657;28;20492;-67
2020/12/12 07:32:39;;;;;;;0.60;0.50;;;6.00;99.90;;;6.98;100.00;-20872.28;5007593;28;20526;-67
2020/12/12 07:35:06;;;;;;;0.60;0.60;;;6.00;99.90;;;6.84;100.00;-20868.28;5015398;28;20938;-67
2020/12/12 07:37:36;;;;;;;0.70;0.60;;;6.00;99.90;;;6.83;100.00;-20868.00;5014941;28;20954;-67
2020/12/12 07:40:03;;;;;;;0.70;0.60;;;6.00;99.90;;;6.86;100.00;-20868.81;5013464;28;20523;-67
2020/12/12 07:42:35;;;;;;;0.70;0.60;;;5.90;99.90;;;6.75;100.00;-20866.03;5006870;28;21009;-66
2020/12/12 07:45:26;;;;;;;0.70;0.60;;;5.90;99.90;;;6.69;100.00;-20864.25;5005744;28;20923;-67
2020/12/12 07:48:01;;;;;;;0.60;0.50;;;5.90;99.90;;;6.71;100.00;-20864.94;5011004;28;20437;-67
2020/12/12 07:50:28;;;;;;;1.37;1.27;;;5.90;99.90;;;6.85;100.00;-20868.53;5008674;28;20849;-68
2020/12/12 07:52:55;;;;;;;0.60;0.60;;;5.90;99.90;;;6.86;100.00;-20868.81;4996614;28;20836;-67
2020/12/12 07:55:25;;;;;;;0.60;0.50;;;5.90;99.90;;;6.91;100.00;-20870.22;5006141;28;21022;-66
2020/12/12 07:57:56;;;;;;;0.60;0.60;;;5.90;99.90;;;7.03;100.00;-20873.53;5008999;28;20935;-66
2020/12/12 08:00:23;;;;;;;0.60;0.60;;;5.90;99.90;;;6.76;100.00;-20866.31;5008556;28;20438;-66
2020/12/12 08:02:56;;;;;;;0.70;0.60;;;5.90;99.90;;;6.93;100.00;-20870.78;5013346;28;20942;-66
2020/12/12 08:05:24;;;;;;;0.60;0.57;;;5.90;99.90;;;6.94;100.00;-20871.06;5013501;28;20937;-67
2020/12/12 08:07:51;;;;;;;0.60;0.50;;;5.90;99.90;;;6.82;100.00;-20867.72;5013062;28;20452;-67
2020/12/12 08:10:31;;;;;;;0.60;0.50;;;5.90;99.90;;;6.80;100.00;-20867.16;5013833;28;20419;-67
2020/12/12 08:12:59;;;;;;;0.70;0.50;;;5.90;99.90;;;6.77;100.00;-20866.59;5013107;28;20521;-66
2020/12/12 08:15:32;;;;;;;0.60;0.50;;;5.90;99.90;;;6.99;100.00;-20872.44;5010435;28;20446;-66
2020/12/12 08:18:11;;;;;;;0.60;0.60;;;5.90;99.90;;;6.96;100.00;-20871.59;5012352;28;20452;-66
2020/12/12 08:20:37;;;;;;;0.63;0.60;;;6.00;99.90;;;6.82;100.00;-20867.72;5014936;28;20450;-67
2020/12/12 08:23:06;;;;;;;0.70;0.60;;;6.00;99.90;;;6.82;100.00;-20867.72;5010867;28;20948;-66
2020/12/12 08:25:34;;;;;;;0.60;0.60;;;6.00;99.90;;;6.72;100.00;-20865.22;5011223;28;20451;-66
2020/12/12 08:28:06;;;;;;;0.80;0.80;;;6.00;99.90;;;6.88;100.00;-20869.38;5014977;28;20927;-66
2020/12/12 08:30:33;;;;;;;0.60;0.60;;;6.00;99.90;;;6.93;100.00;-20870.78;5004730;28;20441;-69
2020/12/12 08:33:09;;;;;;;0.60;0.50;;;6.10;99.90;;;6.92;100.00;-20870.63;5011137;28;20441;-69
2020/12/12 08:35:53;;;;;;;0.60;0.60;;;6.10;99.90;;;6.97;100.00;-20871.88;5003082;28;20800;-66
2020/12/12 08:38:21;;;;;;;0.60;0.50;;;6.00;99.90;;;6.99;100.00;-20872.56;5011465;28;20513;-66
2020/12/12 08:40:50;;;;;;;0.60;0.50;;;6.10;99.90;;;7.00;100.00;-20872.72;5009104;28;20508;-66
2020/12/12 08:43:17;;;;;;;0.60;0.50;;;6.10;99.90;;;7.07;100.00;-20874.66;5012496;28;20473;-67
2020/12/12 08:45:55;;;;;;;0.60;0.50;;;6.10;99.90;;;7.16;100.00;-20877.16;5012643;28;20539;-66
2020/12/12 08:48:31;;;;;;;0.60;0.50;;;6.10;99.90;;;7.27;100.00;-20880.06;5007008;28;20516;-67
2020/12/12 08:51:00;;;;;;;0.60;0.60;;;6.10;99.90;;;7.19;100.00;-20878.00;4999975;28;20778;-67
2020/12/12 08:53:35;;;;;;;0.60;0.50;;;6.20;99.90;;;7.14;100.00;-20876.59;5002608;28;20493;-66
2020/12/12 08:56:14;;;;;;;0.60;0.60;;;6.20;99.90;;;7.21;100.00;-20878.53;5010456;28;20477;-66
2020/12/12 08:58:48;;;;;;;0.70;0.60;;;6.20;99.90;;;7.11;100.00;-20875.78;5000559;28;20501;-66
2020/12/12 09:01:19;;;;;;;0.60;0.50;;;6.20;99.90;;;7.11;100.00;-20875.78;4998652;28;20948;-66
2020/12/12 09:04:02;;;;;;;5.80;1.57;;;6.20;99.90;;;7.18;100.00;-20877.72;4993123;28;20520;-66
2020/12/12 09:06:33;;;;;;;0.70;0.70;;;6.20;99.90;;;7.11;100.00;-20875.63;5009079;28;20507;-66
2020/12/12 09:09:12;;;;;;;0.70;0.60;;;6.20;99.90;;;7.16;100.00;-20877.16;5014340;28;20536;-66
2020/12/12 09:11:43;;;;;;;0.70;0.70;;;6.30;99.90;;;7.28;100.00;-20880.34;5013870;28;20434;-66
2020/12/12 09:14:11;;;;;;;0.60;0.60;;;6.20;99.90;;;7.15;100.00;-20876.88;5014054;28;20525;-66
2020/12/12 09:16:53;;;;;;;0.60;0.60;;;6.30;99.90;;;7.21;100.00;-20878.53;5014150;28;20411;-66
2020/12/12 09:19:21;;;;;;;0.60;0.60;;;6.30;99.90;;;7.20;100.00;-20878.28;5014313;28;20457;-65
2020/12/12 09:21:49;;;;;;;0.70;0.70;;;6.30;99.90;;;7.29;100.00;-20880.50;5005219;28;20486;-67
2020/12/12 09:24:18;;;;;;;0.60;0.60;;;6.30;99.90;;;7.11;100.00;-20875.78;5008070;28;20497;-66
2020/12/12 09:26:47;;;;;;;0.60;0.60;;;6.30;99.90;;;7.26;100.00;-20879.94;5008748;28;20455;-66
2020/12/12 09:29:14;;;;;;;0.60;0.60;;;6.30;99.90;;;7.23;100.00;-20879.09;5003927;28;20937;-66
2020/12/12 09:31:42;;;;;;;0.60;0.50;;;6.40;99.90;;;7.35;100.00;-20882.28;5001745;28;20941;-69
2020/12/12 09:34:10;;;;;;;0.60;0.50;;;6.40;99.90;;;7.43;100.00;-20884.38;5009827;28;20473;-66
2020/12/12 09:36:37;;;;;;;0.60;0.60;;;6.40;99.90;;;7.47;100.00;-20885.50;5013135;28;20460;-66
2020/12/12 09:39:07;;;;;;;0.60;0.50;;;6.40;99.90;;;7.45;100.00;-20884.94;5010521;28;20433;-66
2020/12/12 09:41:35;;;;;;;1.10;1.00;;;6.40;99.90;;;7.54;100.00;-20887.44;5013190;28;20473;-66
2020/12/12 09:44:06;;;;;;;0.70;0.70;;;6.40;99.90;;;7.69;100.00;-20891.47;5005447;28;20872;-66
2020/12/12 09:46:33;;;;;;;0.60;0.60;;;6.40;99.90;;;7.59;100.00;-20888.69;5008077;28;20471;-66
2020/12/12 09:49:01;;;;;;;0.93;0.93;;;6.50;99.90;;;7.70;100.00;-20891.88;5013136;28;20470;-65
2020/12/12 09:51:29;;;;;;;0.70;0.60;;;6.50;99.90;;;7.65;100.00;-20890.50;5013319;28;20436;-66
2020/12/12 09:53:58;;;;;;;0.60;0.60;;;6.50;99.90;;;7.83;100.00;-20895.34;5028597;28;20414;-66
2020/12/12 09:56:25;;;;;;;0.60;0.60;;;6.50;99.90;;;7.69;100.00;-20891.59;5013079;28;21014;-67
2020/12/12 09:58:52;;;;;;;0.70;0.60;;;6.60;99.90;;;7.73;100.00;-20892.56;5013216;28;20428;-66
2020/12/12 10:01:20;;;;;;;0.60;0.60;;;6.60;99.90;;;7.67;100.00;-20890.91;5015717;28;20826;-66
2020/12/12 10:03:47;;;;;;;1.17;1.07;;;6.60;99.90;;;7.71;100.00;-20892.00;5017330;28;20529;-66
2020/12/12 10:06:14;;;;;;;1.60;1.50;;;6.60;99.90;;;7.61;100.00;-20889.38;5016983;28;20523;-66
2020/12/12 10:08:41;;;;;;;0.63;0.60;;;6.60;99.90;;;7.77;100.00;-20893.53;5016811;28;20450;-66
2020/12/12 10:11:08;;;;;;;0.67;0.60;;;6.60;99.90;;;7.85;100.00;-20895.75;5016004;28;20836;-66
2020/12/12 10:13:35;;;;;;;0.60;0.50;;;6.70;99.90;;;7.77;100.00;-20893.53;5017312;28;20420;-66
2020/12/12 10:16:02;;;;;;;0.70;0.60;;;6.70;99.90;;;7.73;100.00;-20892.72;5015681;28;20840;-66
2020/12/12 10:18:31;;;;;;;0.70;0.60;;;6.70;99.90;;;7.75;100.00;-20893.25;5013428;28;20984;-67
2020/12/12 10:20:58;;;;;;;0.60;0.50;;;6.60;99.90;;;7.92;100.00;-20897.72;5016546;28;20510;-66
2020/12/12 10:23:25;;;;;;;0.87;0.80;;;6.60;99.90;;;7.67;100.00;-20891.03;5015626;28;20470;-66
2020/12/12 10:25:52;;;;;;;0.70;0.60;;;6.60;99.90;;;7.86;100.00;-20896.03;5013688;28;20479;-66
2020/12/12 10:28:19;;;;;;;0.70;0.60;;;6.60;99.90;;;7.73;100.00;-20892.56;4998168;28;20448;-68